sensor_id;sensor_type;location;lat;lon;timestamp;P1;durP1;ratioP1;P2;durP2;ratioP2
13421;SDS011;6782;55.904;13.396;2024-03-02T00:00:25;183.13;;;92.33;;
13421;SDS011;6782;55.904;13.396;2024-03-02T00:03:13;175.53;;;92.40;;
13421;SDS011;6782;55.904;13.396;2024-03-02T00:06:01;182.67;;;95.77;;
13421;SDS011;6782;55.904;13.396;2024-03-02T00:08:48;167.37;;;91.07;;
13421;SDS011;6782;55.904;13.396;2024-03-02T00:11:37;166.47;;;91.03;;
13421;SDS011;6782;55.904;13.396;2024-03-02T00:14:25;160.73;;;88.87;;
13421;SDS011;6782;55.904;13.396;2024-03-02T00:17:17;161.00;;;88.43;;
13421;SDS011;6782;55.904;13.396;2024-03-02T00:20:11;166.03;;;88.10;;
13421;SDS011;6782;55.904;13.396;2024-03-02T00:23:05;153.30;;;88.40;;
13421;SDS011;6782;55.904;13.396;2024-03-02T00:25:54;170.23;;;87.80;;
13421;SDS011;6782;55.904;13.396;2024-03-02T00:28:43;154.07;;;83.60;;
13421;SDS011;6782;55.904;13.396;2024-03-02T00:31:31;149.63;;;83.17;;
13421;SDS011;6782;55.904;13.396;2024-03-02T00:34:18;152.17;;;83.30;;
13421;SDS011;6782;55.904;13.396;2024-03-02T00:37:06;152.93;;;83.30;;
13421;SDS011;6782;55.904;13.396;2024-03-02T00:39:53;143.87;;;84.57;;
13421;SDS011;6782;55.904;13.396;2024-03-02T00:42:41;150.03;;;85.00;;
13421;SDS011;6782;55.904;13.396;2024-03-02T00:45:30;150.40;;;81.50;;
13421;SDS011;6782;55.904;13.396;2024-03-02T00:48:17;149.90;;;84.37;;
13421;SDS011;6782;55.904;13.396;2024-03-02T00:51:05;144.43;;;81.90;;
13421;SDS011;6782;55.904;13.396;2024-03-02T00:53:52;144.57;;;81.03;;
13421;SDS011;6782;55.904;13.396;2024-03-02T00:56:42;146.73;;;79.83;;
13421;SDS011;6782;55.904;13.396;2024-03-02T00:59:29;143.10;;;78.27;;
13421;SDS011;6782;55.904;13.396;2024-03-02T01:02:19;140.70;;;79.40;;
13421;SDS011;6782;55.904;13.396;2024-03-02T01:05:07;139.87;;;78.73;;
13421;SDS011;6782;55.904;13.396;2024-03-02T01:07:54;142.07;;;79.90;;
13421;SDS011;6782;55.904;13.396;2024-03-02T01:10:42;143.27;;;79.00;;
13421;SDS011;6782;55.904;13.396;2024-03-02T01:13:29;141.53;;;80.67;;
13421;SDS011;6782;55.904;13.396;2024-03-02T01:16:16;141.27;;;79.77;;
13421;SDS011;6782;55.904;13.396;2024-03-02T01:19:05;153.70;;;82.33;;
13421;SDS011;6782;55.904;13.396;2024-03-02T01:21:53;135.83;;;76.87;;
13421;SDS011;6782;55.904;13.396;2024-03-02T01:24:40;142.23;;;78.83;;
13421;SDS011;6782;55.904;13.396;2024-03-02T01:27:27;155.73;;;80.83;;
13421;SDS011;6782;55.904;13.396;2024-03-02T01:30:15;150.37;;;78.37;;
13421;SDS011;6782;55.904;13.396;2024-03-02T01:33:02;142.90;;;81.53;;
13421;SDS011;6782;55.904;13.396;2024-03-02T01:35:52;139.10;;;78.03;;
13421;SDS011;6782;55.904;13.396;2024-03-02T01:38:39;134.37;;;76.17;;
13421;SDS011;6782;55.904;13.396;2024-03-02T01:41:26;136.70;;;77.40;;
13421;SDS011;6782;55.904;13.396;2024-03-02T01:44:14;138.10;;;79.30;;
13421;SDS011;6782;55.904;13.396;2024-03-02T01:47:01;135.53;;;79.27;;
13421;SDS011;6782;55.904;13.396;2024-03-02T01:49:48;136.30;;;78.57;;
13421;SDS011;6782;55.904;13.396;2024-03-02T01:52:37;147.00;;;78.73;;
13421;SDS011;6782;55.904;13.396;2024-03-02T01:55:25;136.00;;;78.07;;
13421;SDS011;6782;55.904;13.396;2024-03-02T01:58:14;137.73;;;78.40;;
13421;SDS011;6782;55.904;13.396;2024-03-02T02:01:02;142.20;;;78.47;;
13421;SDS011;6782;55.904;13.396;2024-03-02T02:03:49;139.20;;;77.97;;
13421;SDS011;6782;55.904;13.396;2024-03-02T02:06:36;137.00;;;78.37;;
13421;SDS011;6782;55.904;13.396;2024-03-02T02:09:25;136.10;;;76.13;;
13421;SDS011;6782;55.904;13.396;2024-03-02T02:12:12;143.70;;;78.67;;
13421;SDS011;6782;55.904;13.396;2024-03-02T02:15:01;141.70;;;79.13;;
13421;SDS011;6782;55.904;13.396;2024-03-02T02:17:48;136.67;;;78.70;;
13421;SDS011;6782;55.904;13.396;2024-03-02T02:20:35;141.63;;;79.50;;
13421;SDS011;6782;55.904;13.396;2024-03-02T02:23:24;139.57;;;80.40;;
13421;SDS011;6782;55.904;13.396;2024-03-02T02:26:11;129.03;;;76.93;;
13421;SDS011;6782;55.904;13.396;2024-03-02T02:28:58;130.73;;;79.73;;
13421;SDS011;6782;55.904;13.396;2024-03-02T02:31:46;127.87;;;77.87;;
13421;SDS011;6782;55.904;13.396;2024-03-02T02:34:33;139.47;;;79.67;;
13421;SDS011;6782;55.904;13.396;2024-03-02T02:37:20;127.60;;;78.23;;
13421;SDS011;6782;55.904;13.396;2024-03-02T02:40:09;133.23;;;78.10;;
13421;SDS011;6782;55.904;13.396;2024-03-02T02:42:57;130.17;;;77.97;;
13421;SDS011;6782;55.904;13.396;2024-03-02T02:45:45;127.93;;;78.53;;
13421;SDS011;6782;55.904;13.396;2024-03-02T02:48:32;133.33;;;79.23;;
13421;SDS011;6782;55.904;13.396;2024-03-02T02:51:20;138.50;;;80.37;;
13421;SDS011;6782;55.904;13.396;2024-03-02T02:54:07;132.80;;;79.03;;
13421;SDS011;6782;55.904;13.396;2024-03-02T02:56:57;139.80;;;79.47;;
13421;SDS011;6782;55.904;13.396;2024-03-02T02:59:44;136.27;;;77.70;;
13421;SDS011;6782;55.904;13.396;2024-03-02T03:02:32;143.97;;;80.07;;
13421;SDS011;6782;55.904;13.396;2024-03-02T03:05:19;139.00;;;79.20;;
13421;SDS011;6782;55.904;13.396;2024-03-02T03:08:06;137.93;;;81.07;;
13421;SDS011;6782;55.904;13.396;2024-03-02T03:10:53;138.73;;;80.23;;
13421;SDS011;6782;55.904;13.396;2024-03-02T03:13:42;135.07;;;80.27;;
13421;SDS011;6782;55.904;13.396;2024-03-02T03:16:29;137.10;;;79.97;;
13421;SDS011;6782;55.904;13.396;2024-03-02T03:19:17;137.07;;;81.70;;
13421;SDS011;6782;55.904;13.396;2024-03-02T03:22:04;132.47;;;80.57;;
13421;SDS011;6782;55.904;13.396;2024-03-02T03:24:51;137.33;;;81.63;;
13421;SDS011;6782;55.904;13.396;2024-03-02T03:27:39;131.20;;;78.43;;
13421;SDS011;6782;55.904;13.396;2024-03-02T03:30:28;134.20;;;79.07;;
13421;SDS011;6782;55.904;13.396;2024-03-02T03:33:15;127.63;;;79.90;;
13421;SDS011;6782;55.904;13.396;2024-03-02T03:36:03;135.40;;;77.63;;
13421;SDS011;6782;55.904;13.396;2024-03-02T03:38:50;128.30;;;78.17;;
13421;SDS011;6782;55.904;13.396;2024-03-02T03:41:38;126.07;;;77.87;;
13421;SDS011;6782;55.904;13.396;2024-03-02T03:44:27;124.13;;;77.70;;
13421;SDS011;6782;55.904;13.396;2024-03-02T03:47:16;126.30;;;77.90;;
13421;SDS011;6782;55.904;13.396;2024-03-02T03:50:03;134.60;;;80.37;;
13421;SDS011;6782;55.904;13.396;2024-03-02T03:52:52;126.70;;;78.93;;
13421;SDS011;6782;55.904;13.396;2024-03-02T03:55:39;123.83;;;78.33;;
13421;SDS011;6782;55.904;13.396;2024-03-02T03:58:26;123.70;;;80.10;;
13421;SDS011;6782;55.904;13.396;2024-03-02T04:01:13;124.37;;;79.33;;
13421;SDS011;6782;55.904;13.396;2024-03-02T04:04:02;125.93;;;80.03;;
13421;SDS011;6782;55.904;13.396;2024-03-02T04:06:50;122.90;;;75.33;;
13421;SDS011;6782;55.904;13.396;2024-03-02T04:09:37;124.70;;;79.67;;
13421;SDS011;6782;55.904;13.396;2024-03-02T04:12:24;117.67;;;75.70;;
13421;SDS011;6782;55.904;13.396;2024-03-02T04:15:11;120.97;;;76.87;;
13421;SDS011;6782;55.904;13.396;2024-03-02T04:17:58;120.37;;;76.87;;
13421;SDS011;6782;55.904;13.396;2024-03-02T04:20:47;118.73;;;75.93;;
13421;SDS011;6782;55.904;13.396;2024-03-02T04:23:34;117.53;;;76.03;;
13421;SDS011;6782;55.904;13.396;2024-03-02T04:26:21;123.40;;;76.73;;
13421;SDS011;6782;55.904;13.396;2024-03-02T04:29:08;118.90;;;75.60;;
13421;SDS011;6782;55.904;13.396;2024-03-02T04:31:56;122.30;;;76.60;;
13421;SDS011;6782;55.904;13.396;2024-03-02T04:34:43;118.43;;;74.73;;
13421;SDS011;6782;55.904;13.396;2024-03-02T04:37:31;123.07;;;77.20;;
13421;SDS011;6782;55.904;13.396;2024-03-02T04:40:19;126.10;;;78.07;;
13421;SDS011;6782;55.904;13.396;2024-03-02T04:43:07;124.13;;;78.33;;
13421;SDS011;6782;55.904;13.396;2024-03-02T04:45:55;130.60;;;79.63;;
13421;SDS011;6782;55.904;13.396;2024-03-02T04:48:42;125.33;;;78.47;;
13421;SDS011;6782;55.904;13.396;2024-03-02T04:51:29;121.83;;;76.07;;
13421;SDS011;6782;55.904;13.396;2024-03-02T04:54:17;128.70;;;79.20;;
13421;SDS011;6782;55.904;13.396;2024-03-02T04:57:05;123.33;;;78.33;;
13421;SDS011;6782;55.904;13.396;2024-03-02T04:59:53;126.63;;;79.60;;
13421;SDS011;6782;55.904;13.396;2024-03-02T05:02:40;129.37;;;80.57;;
13421;SDS011;6782;55.904;13.396;2024-03-02T05:05:27;132.17;;;83.17;;
13421;SDS011;6782;55.904;13.396;2024-03-02T05:08:14;135.97;;;81.63;;
13421;SDS011;6782;55.904;13.396;2024-03-02T05:11:04;134.03;;;83.03;;
13421;SDS011;6782;55.904;13.396;2024-03-02T05:14:05;138.20;;;84.47;;
13421;SDS011;6782;55.904;13.396;2024-03-02T05:16:52;142.17;;;83.73;;
13421;SDS011;6782;55.904;13.396;2024-03-02T05:19:40;150.10;;;86.03;;
13421;SDS011;6782;55.904;13.396;2024-03-02T05:22:27;151.83;;;85.33;;
13421;SDS011;6782;55.904;13.396;2024-03-02T05:25:14;150.23;;;88.80;;
13421;SDS011;6782;55.904;13.396;2024-03-02T05:28:04;147.20;;;82.27;;
13421;SDS011;6782;55.904;13.396;2024-03-02T05:30:51;153.53;;;87.33;;
13421;SDS011;6782;55.904;13.396;2024-03-02T05:33:39;165.00;;;89.93;;
13421;SDS011;6782;55.904;13.396;2024-03-02T05:36:26;162.70;;;89.30;;
13421;SDS011;6782;55.904;13.396;2024-03-02T05:39:13;169.80;;;89.10;;
13421;SDS011;6782;55.904;13.396;2024-03-02T05:42:01;174.87;;;88.40;;
13421;SDS011;6782;55.904;13.396;2024-03-02T05:44:50;169.00;;;92.00;;
13421;SDS011;6782;55.904;13.396;2024-03-02T05:47:37;171.83;;;92.07;;
13421;SDS011;6782;55.904;13.396;2024-03-02T05:50:24;180.53;;;94.73;;
13421;SDS011;6782;55.904;13.396;2024-03-02T05:53:12;181.57;;;97.20;;
13421;SDS011;6782;55.904;13.396;2024-03-02T05:56:00;189.50;;;92.77;;
13421;SDS011;6782;55.904;13.396;2024-03-02T05:58:48;191.63;;;90.33;;
13421;SDS011;6782;55.904;13.396;2024-03-02T06:01:48;181.97;;;90.93;;
13421;SDS011;6782;55.904;13.396;2024-03-02T06:04:37;182.20;;;94.87;;
13421;SDS011;6782;55.904;13.396;2024-03-02T06:07:24;184.27;;;94.23;;
13421;SDS011;6782;55.904;13.396;2024-03-02T06:10:11;186.93;;;94.20;;
13421;SDS011;6782;55.904;13.396;2024-03-02T06:12:59;180.57;;;90.97;;
13421;SDS011;6782;55.904;13.396;2024-03-02T06:15:46;182.63;;;91.03;;
13421;SDS011;6782;55.904;13.396;2024-03-02T06:18:35;194.37;;;98.33;;
13421;SDS011;6782;55.904;13.396;2024-03-02T06:21:23;170.63;;;89.93;;
13421;SDS011;6782;55.904;13.396;2024-03-02T06:24:10;178.03;;;91.30;;
13421;SDS011;6782;55.904;13.396;2024-03-02T06:26:57;171.80;;;88.17;;
13421;SDS011;6782;55.904;13.396;2024-03-02T06:29:45;166.77;;;89.90;;
13421;SDS011;6782;55.904;13.396;2024-03-02T06:32:32;169.87;;;89.03;;
13421;SDS011;6782;55.904;13.396;2024-03-02T06:35:21;155.03;;;86.70;;
13421;SDS011;6782;55.904;13.396;2024-03-02T06:38:08;161.93;;;87.50;;
13421;SDS011;6782;55.904;13.396;2024-03-02T06:40:55;167.97;;;87.63;;
13421;SDS011;6782;55.904;13.396;2024-03-02T06:43:42;161.83;;;86.50;;
13421;SDS011;6782;55.904;13.396;2024-03-02T06:46:29;144.20;;;84.17;;
13421;SDS011;6782;55.904;13.396;2024-03-02T06:49:17;153.03;;;84.30;;
13421;SDS011;6782;55.904;13.396;2024-03-02T06:52:06;155.63;;;86.33;;
13421;SDS011;6782;55.904;13.396;2024-03-02T06:54:53;145.13;;;80.83;;
13421;SDS011;6782;55.904;13.396;2024-03-02T06:57:40;139.40;;;80.73;;
13421;SDS011;6782;55.904;13.396;2024-03-02T07:00:28;131.70;;;79.67;;
13421;SDS011;6782;55.904;13.396;2024-03-02T07:03:15;130.27;;;80.03;;
13421;SDS011;6782;55.904;13.396;2024-03-02T07:06:02;124.87;;;77.70;;
13421;SDS011;6782;55.904;13.396;2024-03-02T07:08:51;121.63;;;78.33;;
13421;SDS011;6782;55.904;13.396;2024-03-02T07:11:39;117.33;;;74.57;;
13421;SDS011;6782;55.904;13.396;2024-03-02T07:14:26;109.60;;;75.00;;
13421;SDS011;6782;55.904;13.396;2024-03-02T07:17:33;102.87;;;72.60;;
13421;SDS011;6782;55.904;13.396;2024-03-02T07:20:22;95.93;;;68.67;;
13421;SDS011;6782;55.904;13.396;2024-03-02T07:23:09;95.57;;;67.27;;
13421;SDS011;6782;55.904;13.396;2024-03-02T07:25:58;87.30;;;62.27;;
13421;SDS011;6782;55.904;13.396;2024-03-02T07:28:47;88.43;;;62.53;;
13421;SDS011;6782;55.904;13.396;2024-03-02T07:31:35;90.70;;;64.00;;
13421;SDS011;6782;55.904;13.396;2024-03-02T07:34:22;82.27;;;60.33;;
13421;SDS011;6782;55.904;13.396;2024-03-02T07:37:09;80.33;;;59.67;;
13421;SDS011;6782;55.904;13.396;2024-03-02T07:39:56;79.13;;;56.30;;
13421;SDS011;6782;55.904;13.396;2024-03-02T07:42:46;74.63;;;55.00;;
13421;SDS011;6782;55.904;13.396;2024-03-02T07:45:33;76.30;;;55.00;;
13421;SDS011;6782;55.904;13.396;2024-03-02T07:48:21;76.10;;;55.47;;
13421;SDS011;6782;55.904;13.396;2024-03-02T07:51:08;73.10;;;52.40;;
13421;SDS011;6782;55.904;13.396;2024-03-02T07:53:55;70.47;;;54.47;;
13421;SDS011;6782;55.904;13.396;2024-03-02T07:56:42;72.43;;;55.70;;
13421;SDS011;6782;55.904;13.396;2024-03-02T07:59:31;70.10;;;55.37;;
13421;SDS011;6782;55.904;13.396;2024-03-02T08:02:18;72.97;;;54.53;;
13421;SDS011;6782;55.904;13.396;2024-03-02T08:05:06;68.87;;;54.40;;
13421;SDS011;6782;55.904;13.396;2024-03-02T08:07:53;64.87;;;51.90;;
13421;SDS011;6782;55.904;13.396;2024-03-02T08:10:40;67.53;;;52.17;;
13421;SDS011;6782;55.904;13.396;2024-03-02T08:13:27;66.07;;;53.60;;
13421;SDS011;6782;55.904;13.396;2024-03-02T08:16:16;67.43;;;53.23;;
13421;SDS011;6782;55.904;13.396;2024-03-02T08:19:05;67.00;;;54.20;;
13421;SDS011;6782;55.904;13.396;2024-03-02T08:21:52;62.80;;;54.43;;
13421;SDS011;6782;55.904;13.396;2024-03-02T08:24:40;65.20;;;52.90;;
13421;SDS011;6782;55.904;13.396;2024-03-02T08:27:27;67.00;;;51.77;;
13421;SDS011;6782;55.904;13.396;2024-03-02T08:30:15;59.87;;;52.47;;
13421;SDS011;6782;55.904;13.396;2024-03-02T08:33:05;80.83;;;72.07;;
13421;SDS011;6782;55.904;13.396;2024-03-02T08:35:52;58.63;;;50.17;;
13421;SDS011;6782;55.904;13.396;2024-03-02T08:38:39;56.87;;;48.70;;
13421;SDS011;6782;55.904;13.396;2024-03-02T08:41:26;60.10;;;50.33;;
13421;SDS011;6782;55.904;13.396;2024-03-02T08:44:14;59.30;;;46.97;;
13421;SDS011;6782;55.904;13.396;2024-03-02T08:47:01;54.37;;;44.60;;
13421;SDS011;6782;55.904;13.396;2024-03-02T08:49:50;50.67;;;43.97;;
13421;SDS011;6782;55.904;13.396;2024-03-02T08:52:38;76.93;;;64.63;;
13421;SDS011;6782;55.904;13.396;2024-03-02T08:55:25;62.30;;;53.30;;
13421;SDS011;6782;55.904;13.396;2024-03-02T08:58:13;55.43;;;46.23;;
13421;SDS011;6782;55.904;13.396;2024-03-02T09:01:00;52.30;;;44.57;;
13421;SDS011;6782;55.904;13.396;2024-03-02T09:03:48;53.97;;;44.63;;
13421;SDS011;6782;55.904;13.396;2024-03-02T09:06:37;51.40;;;43.50;;
13421;SDS011;6782;55.904;13.396;2024-03-02T09:09:24;51.57;;;41.90;;
13421;SDS011;6782;55.904;13.396;2024-03-02T09:12:11;52.23;;;43.03;;
13421;SDS011;6782;55.904;13.396;2024-03-02T09:14:58;51.10;;;41.00;;
13421;SDS011;6782;55.904;13.396;2024-03-02T09:17:46;53.60;;;44.23;;
13421;SDS011;6782;55.904;13.396;2024-03-02T09:20:33;52.07;;;42.47;;
13421;SDS011;6782;55.904;13.396;2024-03-02T09:23:22;51.40;;;41.17;;
13421;SDS011;6782;55.904;13.396;2024-03-02T09:26:09;52.73;;;42.30;;
13421;SDS011;6782;55.904;13.396;2024-03-02T09:28:56;51.70;;;43.03;;
13421;SDS011;6782;55.904;13.396;2024-03-02T09:31:43;51.53;;;41.47;;
13421;SDS011;6782;55.904;13.396;2024-03-02T09:34:30;49.80;;;41.57;;
13421;SDS011;6782;55.904;13.396;2024-03-02T09:37:17;55.37;;;42.53;;
13421;SDS011;6782;55.904;13.396;2024-03-02T09:40:07;58.60;;;42.93;;
13421;SDS011;6782;55.904;13.396;2024-03-02T09:42:54;55.73;;;42.53;;
13421;SDS011;6782;55.904;13.396;2024-03-02T09:45:42;52.27;;;41.60;;
13421;SDS011;6782;55.904;13.396;2024-03-02T09:48:32;57.10;;;43.37;;
13421;SDS011;6782;55.904;13.396;2024-03-02T09:51:19;56.70;;;42.50;;
13421;SDS011;6782;55.904;13.396;2024-03-02T09:54:06;55.97;;;43.13;;
13421;SDS011;6782;55.904;13.396;2024-03-02T09:56:55;59.27;;;44.30;;
13421;SDS011;6782;55.904;13.396;2024-03-02T09:59:43;56.57;;;42.53;;
13421;SDS011;6782;55.904;13.396;2024-03-02T10:02:31;51.17;;;41.30;;
13421;SDS011;6782;55.904;13.396;2024-03-02T10:05:24;57.60;;;43.33;;
13421;SDS011;6782;55.904;13.396;2024-03-02T10:08:13;57.10;;;44.93;;
13421;SDS011;6782;55.904;13.396;2024-03-02T10:11:00;56.33;;;43.47;;
13421;SDS011;6782;55.904;13.396;2024-03-02T10:13:49;54.23;;;42.30;;
13421;SDS011;6782;55.904;13.396;2024-03-02T10:16:36;56.60;;;43.20;;
13421;SDS011;6782;55.904;13.396;2024-03-02T10:19:24;57.00;;;43.43;;
13421;SDS011;6782;55.904;13.396;2024-03-02T10:22:12;54.33;;;43.10;;
13421;SDS011;6782;55.904;13.396;2024-03-02T10:24:59;54.30;;;42.03;;
13421;SDS011;6782;55.904;13.396;2024-03-02T10:27:46;51.87;;;40.43;;
13421;SDS011;6782;55.904;13.396;2024-03-02T10:30:38;55.03;;;42.73;;
13421;SDS011;6782;55.904;13.396;2024-03-02T10:33:25;59.53;;;41.20;;
13421;SDS011;6782;55.904;13.396;2024-03-02T10:36:12;55.77;;;42.57;;
13421;SDS011;6782;55.904;13.396;2024-03-02T10:38:59;55.30;;;41.50;;
13421;SDS011;6782;55.904;13.396;2024-03-02T10:41:49;58.63;;;42.40;;
13421;SDS011;6782;55.904;13.396;2024-03-02T10:44:38;63.20;;;44.70;;
13421;SDS011;6782;55.904;13.396;2024-03-02T10:47:27;76.50;;;48.67;;
13421;SDS011;6782;55.904;13.396;2024-03-02T10:50:18;82.17;;;49.20;;
13421;SDS011;6782;55.904;13.396;2024-03-02T10:53:05;75.70;;;48.00;;
13421;SDS011;6782;55.904;13.396;2024-03-02T10:55:53;92.20;;;52.43;;
13421;SDS011;6782;55.904;13.396;2024-03-02T10:58:47;82.70;;;52.47;;
13421;SDS011;6782;55.904;13.396;2024-03-02T11:01:38;94.73;;;54.07;;
13421;SDS011;6782;55.904;13.396;2024-03-02T11:04:27;89.97;;;53.07;;
13421;SDS011;6782;55.904;13.396;2024-03-02T11:07:15;91.40;;;53.70;;
13421;SDS011;6782;55.904;13.396;2024-03-02T11:10:06;89.13;;;54.33;;
13421;SDS011;6782;55.904;13.396;2024-03-02T11:12:56;90.17;;;55.73;;
13421;SDS011;6782;55.904;13.396;2024-03-02T11:15:47;94.67;;;55.83;;
13421;SDS011;6782;55.904;13.396;2024-03-02T11:18:37;97.23;;;55.93;;
13421;SDS011;6782;55.904;13.396;2024-03-02T11:21:27;102.13;;;56.40;;
13421;SDS011;6782;55.904;13.396;2024-03-02T11:24:30;100.67;;;57.03;;
13421;SDS011;6782;55.904;13.396;2024-03-02T11:30:51;80.03;;;51.47;;
13421;SDS011;6782;55.904;13.396;2024-03-02T11:33:39;80.60;;;52.57;;
13421;SDS011;6782;55.904;13.396;2024-03-02T11:36:27;77.87;;;51.37;;
13421;SDS011;6782;55.904;13.396;2024-03-02T11:39:15;71.67;;;48.27;;
13421;SDS011;6782;55.904;13.396;2024-03-02T11:42:03;68.97;;;47.90;;
13421;SDS011;6782;55.904;13.396;2024-03-02T11:44:53;65.80;;;47.07;;
13421;SDS011;6782;55.904;13.396;2024-03-02T11:47:46;62.27;;;45.30;;
13421;SDS011;6782;55.904;13.396;2024-03-02T11:50:39;64.30;;;45.53;;
13421;SDS011;6782;55.904;13.396;2024-03-02T11:53:28;62.90;;;45.07;;
13421;SDS011;6782;55.904;13.396;2024-03-02T11:56:18;60.60;;;42.23;;
13421;SDS011;6782;55.904;13.396;2024-03-02T11:59:07;58.60;;;43.13;;
13421;SDS011;6782;55.904;13.396;2024-03-02T12:01:54;60.73;;;43.07;;
13421;SDS011;6782;55.904;13.396;2024-03-02T12:04:42;57.57;;;41.93;;
13421;SDS011;6782;55.904;13.396;2024-03-02T12:07:30;57.40;;;42.50;;
13421;SDS011;6782;55.904;13.396;2024-03-02T12:10:19;51.37;;;40.17;;
13421;SDS011;6782;55.904;13.396;2024-03-02T12:13:06;61.13;;;40.80;;
13421;SDS011;6782;55.904;13.396;2024-03-02T12:15:56;54.67;;;40.23;;
13421;SDS011;6782;55.904;13.396;2024-03-02T12:18:45;54.17;;;40.03;;
13421;SDS011;6782;55.904;13.396;2024-03-02T12:21:33;52.27;;;39.30;;
13421;SDS011;6782;55.904;13.396;2024-03-02T12:24:21;53.47;;;39.83;;
13421;SDS011;6782;55.904;13.396;2024-03-02T12:27:12;49.33;;;37.13;;
13421;SDS011;6782;55.904;13.396;2024-03-02T12:30:01;53.77;;;38.20;;
13421;SDS011;6782;55.904;13.396;2024-03-02T12:32:50;51.50;;;38.50;;
13421;SDS011;6782;55.904;13.396;2024-03-02T12:35:38;56.97;;;40.60;;
13421;SDS011;6782;55.904;13.396;2024-03-02T12:38:25;52.90;;;38.67;;
13421;SDS011;6782;55.904;13.396;2024-03-02T12:41:14;52.90;;;39.03;;
13421;SDS011;6782;55.904;13.396;2024-03-02T12:44:03;53.60;;;39.60;;
13421;SDS011;6782;55.904;13.396;2024-03-02T12:46:50;53.23;;;40.03;;
13421;SDS011;6782;55.904;13.396;2024-03-02T12:49:39;52.80;;;39.43;;
13421;SDS011;6782;55.904;13.396;2024-03-02T12:52:27;57.43;;;40.13;;
13421;SDS011;6782;55.904;13.396;2024-03-02T12:55:14;56.47;;;40.13;;
13421;SDS011;6782;55.904;13.396;2024-03-02T12:58:02;60.10;;;43.10;;
13421;SDS011;6782;55.904;13.396;2024-03-02T13:00:55;61.97;;;44.07;;
13421;SDS011;6782;55.904;13.396;2024-03-02T13:03:52;69.30;;;45.07;;
13421;SDS011;6782;55.904;13.396;2024-03-02T13:06:41;77.67;;;48.83;;
13421;SDS011;6782;55.904;13.396;2024-03-02T13:09:28;82.70;;;51.07;;
13421;SDS011;6782;55.904;13.396;2024-03-02T13:12:15;89.73;;;54.30;;
13421;SDS011;6782;55.904;13.396;2024-03-02T13:15:03;95.03;;;53.20;;
13421;SDS011;6782;55.904;13.396;2024-03-02T13:17:53;101.17;;;54.97;;
13421;SDS011;6782;55.904;13.396;2024-03-02T13:20:40;104.40;;;56.73;;
13421;SDS011;6782;55.904;13.396;2024-03-02T13:23:27;114.27;;;62.17;;
13421;SDS011;6782;55.904;13.396;2024-03-02T13:26:16;118.70;;;63.20;;
13421;SDS011;6782;55.904;13.396;2024-03-02T13:29:03;129.57;;;62.23;;
13421;SDS011;6782;55.904;13.396;2024-03-02T13:31:50;127.13;;;63.67;;
13421;SDS011;6782;55.904;13.396;2024-03-02T13:34:39;131.97;;;68.90;;
13421;SDS011;6782;55.904;13.396;2024-03-02T13:37:27;149.43;;;69.17;;
13421;SDS011;6782;55.904;13.396;2024-03-02T13:40:14;137.10;;;69.47;;
13421;SDS011;6782;55.904;13.396;2024-03-02T13:43:05;172.60;;;73.63;;
13421;SDS011;6782;55.904;13.396;2024-03-02T13:45:52;162.47;;;74.97;;
13421;SDS011;6782;55.904;13.396;2024-03-02T13:48:39;166.43;;;77.70;;
13421;SDS011;6782;55.904;13.396;2024-03-02T13:51:28;162.90;;;76.67;;
13421;SDS011;6782;55.904;13.396;2024-03-02T13:54:15;182.33;;;80.63;;
13421;SDS011;6782;55.904;13.396;2024-03-02T13:57:02;174.70;;;82.50;;
13421;SDS011;6782;55.904;13.396;2024-03-02T13:59:50;177.77;;;84.43;;
13421;SDS011;6782;55.904;13.396;2024-03-02T14:02:38;194.40;;;87.07;;
13421;SDS011;6782;55.904;13.396;2024-03-02T14:05:26;186.27;;;84.17;;
13421;SDS011;6782;55.904;13.396;2024-03-02T14:08:15;221.70;;;91.63;;
13421;SDS011;6782;55.904;13.396;2024-03-02T14:11:03;265.80;;;92.73;;
13421;SDS011;6782;55.904;13.396;2024-03-02T14:13:50;243.93;;;96.53;;
13421;SDS011;6782;55.904;13.396;2024-03-02T14:16:39;218.00;;;92.43;;
13421;SDS011;6782;55.904;13.396;2024-03-02T14:19:27;252.43;;;94.27;;
13421;SDS011;6782;55.904;13.396;2024-03-02T14:22:14;218.13;;;94.90;;
13421;SDS011;6782;55.904;13.396;2024-03-02T14:25:05;238.10;;;93.83;;
13421;SDS011;6782;55.904;13.396;2024-03-02T14:27:52;228.93;;;95.53;;
13421;SDS011;6782;55.904;13.396;2024-03-02T14:30:40;248.70;;;99.57;;
13421;SDS011;6782;55.904;13.396;2024-03-02T14:33:27;271.40;;;100.17;;
13421;SDS011;6782;55.904;13.396;2024-03-02T14:36:14;263.03;;;98.10;;
13421;SDS011;6782;55.904;13.396;2024-03-02T14:39:01;376.70;;;109.40;;
13421;SDS011;6782;55.904;13.396;2024-03-02T14:41:51;286.13;;;100.90;;
13421;SDS011;6782;55.904;13.396;2024-03-02T14:44:38;344.37;;;107.40;;
13421;SDS011;6782;55.904;13.396;2024-03-02T14:47:25;282.93;;;100.00;;
13421;SDS011;6782;55.904;13.396;2024-03-02T14:50:13;225.17;;;93.73;;
13421;SDS011;6782;55.904;13.396;2024-03-02T14:53:02;281.87;;;99.10;;
13421;SDS011;6782;55.904;13.396;2024-03-02T14:55:52;289.23;;;101.77;;
13421;SDS011;6782;55.904;13.396;2024-03-02T14:58:41;240.27;;;92.90;;
13421;SDS011;6782;55.904;13.396;2024-03-02T15:01:28;243.90;;;96.87;;
13421;SDS011;6782;55.904;13.396;2024-03-02T15:04:15;265.70;;;98.30;;
13421;SDS011;6782;55.904;13.396;2024-03-02T15:07:04;298.73;;;100.63;;
13421;SDS011;6782;55.904;13.396;2024-03-02T15:09:51;291.67;;;101.63;;
13421;SDS011;6782;55.904;13.396;2024-03-02T15:12:39;379.43;;;108.57;;
13421;SDS011;6782;55.904;13.396;2024-03-02T15:15:28;440.23;;;114.13;;
13421;SDS011;6782;55.904;13.396;2024-03-02T15:18:16;367.63;;;106.67;;
13421;SDS011;6782;55.904;13.396;2024-03-02T15:21:03;506.07;;;118.37;;
13421;SDS011;6782;55.904;13.396;2024-03-02T15:23:51;399.60;;;110.63;;
13421;SDS011;6782;55.904;13.396;2024-03-02T15:26:38;433.33;;;112.30;;
13421;SDS011;6782;55.904;13.396;2024-03-02T15:29:25;467.23;;;113.77;;
13421;SDS011;6782;55.904;13.396;2024-03-02T15:32:16;340.60;;;108.17;;
13421;SDS011;6782;55.904;13.396;2024-03-02T15:35:04;493.67;;;115.53;;
13421;SDS011;6782;55.904;13.396;2024-03-02T15:37:51;385.53;;;106.70;;
13421;SDS011;6782;55.904;13.396;2024-03-02T15:40:39;413.23;;;113.40;;
13421;SDS011;6782;55.904;13.396;2024-03-02T15:43:26;389.93;;;107.90;;
13421;SDS011;6782;55.904;13.396;2024-03-02T15:46:14;407.97;;;108.93;;
13421;SDS011;6782;55.904;13.396;2024-03-02T15:49:03;481.73;;;116.90;;
13421;SDS011;6782;55.904;13.396;2024-03-02T15:51:51;656.57;;;136.10;;
13421;SDS011;6782;55.904;13.396;2024-03-02T15:54:39;408.03;;;111.63;;
13421;SDS011;6782;55.904;13.396;2024-03-02T15:57:26;476.83;;;121.60;;
13421;SDS011;6782;55.904;13.396;2024-03-02T16:00:13;496.70;;;119.30;;
13421;SDS011;6782;55.904;13.396;2024-03-02T16:03:01;528.60;;;125.93;;
13421;SDS011;6782;55.904;13.396;2024-03-02T16:05:50;553.07;;;128.63;;
13421;SDS011;6782;55.904;13.396;2024-03-02T16:08:37;459.20;;;121.67;;
13421;SDS011;6782;55.904;13.396;2024-03-02T16:11:24;516.87;;;126.77;;
13421;SDS011;6782;55.904;13.396;2024-03-02T16:14:12;414.53;;;119.03;;